createdAt,value
2017-12-05T00:00:47.023Z,0
2017-12-05T00:01:46.478Z,0
2017-12-05T00:02:46.993Z,0
2017-12-05T00:03:46.978Z,0
2017-12-05T00:04:46.975Z,0
2017-12-05T00:05:46.949Z,0
2017-12-05T00:06:46.940Z,0
2017-12-05T00:07:46.928Z,0
2017-12-05T00:08:46.910Z,0
2017-12-05T00:09:46.902Z,0
2017-12-05T00:10:46.876Z,0
2017-12-05T00:11:46.875Z,0
2017-12-05T00:12:46.899Z,0
2017-12-05T00:13:46.831Z,0
2017-12-05T00:14:46.572Z,0
2017-12-05T00:15:46.812Z,0
2017-12-05T00:16:46.542Z,0
2017-12-05T00:17:46.534Z,0
2017-12-05T00:18:46.520Z,0
2017-12-05T00:19:46.515Z,0
2017-12-05T00:20:46.748Z,0
2017-12-05T00:21:46.731Z,0
2017-12-05T00:22:46.721Z,0
2017-12-05T00:23:46.760Z,0
2017-12-05T00:24:46.690Z,0
2017-12-05T00:25:46.671Z,0
2017-12-05T00:26:46.656Z,0
2017-12-05T00:27:46.392Z,0
2017-12-05T00:28:46.642Z,0
2017-12-05T00:29:46.617Z,0
2017-12-05T00:30:46.346Z,0
2017-12-05T00:31:46.593Z,0
2017-12-05T00:32:46.319Z,0
2017-12-05T00:33:46.579Z,0
2017-12-05T00:34:46.290Z,0
2017-12-05T00:35:46.542Z,0
2017-12-05T00:36:46.532Z,0
2017-12-05T00:37:46.253Z,0
2017-12-05T00:38:46.499Z,0
2017-12-05T00:39:46.499Z,0
2017-12-05T00:40:46.462Z,0
2017-12-05T00:41:46.440Z,0
2017-12-05T00:42:46.191Z,0
2017-12-05T00:43:46.428Z,0
2017-12-05T00:44:46.407Z,0
2017-12-05T00:45:46.408Z,0
2017-12-05T00:46:46.394Z,0
2017-12-05T00:47:46.123Z,0
2017-12-05T00:48:46.369Z,0
2017-12-05T00:49:46.087Z,0
2017-12-05T00:50:46.328Z,0
2017-12-05T00:51:46.324Z,0
2017-12-05T00:52:46.316Z,0
2017-12-05T00:53:46.308Z,0
2017-12-05T00:54:46.025Z,0
2017-12-05T00:55:46.290Z,0
2017-12-05T00:56:46.260Z,0
2017-12-05T00:57:46.246Z,0
2017-12-05T00:58:46.233Z,0
2017-12-05T00:59:46.230Z,0
2017-12-05T01:00:46.221Z,0
2017-12-05T01:01:46.201Z,0
2017-12-05T01:02:46.188Z,0
2017-12-05T01:03:46.189Z,0
2017-12-05T01:04:46.148Z,0
2017-12-05T01:05:46.133Z,0
2017-12-05T01:06:45.872Z,0
2017-12-05T01:07:46.118Z,0
2017-12-05T01:08:46.116Z,0
2017-12-05T01:09:46.095Z,0
2017-12-05T01:10:46.071Z,0
2017-12-05T01:11:46.071Z,0
2017-12-05T01:12:45.786Z,0
2017-12-05T01:13:46.029Z,0
2017-12-05T01:14:46.013Z,0
2017-12-05T01:15:46.021Z,0
2017-12-05T01:16:46.007Z,0
2017-12-05T01:17:45.994Z,0
2017-12-05T01:18:45.989Z,0
2017-12-05T01:19:45.712Z,0
2017-12-05T01:20:45.940Z,0
2017-12-05T01:21:45.917Z,0
2017-12-05T01:22:45.919Z,0
2017-12-05T01:23:45.654Z,0
2017-12-05T01:24:45.377Z,0
2017-12-05T01:25:45.372Z,0
2017-12-05T01:26:45.879Z,0
2017-12-05T01:27:45.875Z,0
2017-12-05T01:28:45.593Z,0
2017-12-05T01:29:45.854Z,0
2017-12-05T01:30:45.821Z,0
2017-12-05T01:31:45.792Z,0
2017-12-05T01:32:45.800Z,0
2017-12-05T01:33:45.515Z,0
2017-12-05T01:34:45.512Z,0
2017-12-05T01:35:45.750Z,0
2017-12-05T01:36:45.739Z,0
2017-12-05T01:37:45.730Z,0
2017-12-05T01:38:45.710Z,0
2017-12-05T01:39:45.701Z,0
2017-12-05T01:40:45.738Z,0
2017-12-05T01:41:45.675Z,0
2017-12-05T01:42:45.667Z,0
2017-12-05T01:43:45.651Z,0
2017-12-05T01:44:45.641Z,0
2017-12-05T01:45:45.611Z,0
2017-12-05T01:46:45.359Z,0
2017-12-05T01:47:45.581Z,0
2017-12-05T01:48:45.592Z,0
2017-12-05T01:49:45.579Z,0
2017-12-05T01:50:45.561Z,0
2017-12-05T01:51:45.563Z,0
2017-12-05T01:52:45.533Z,0
2017-12-05T01:53:45.529Z,0
2017-12-05T01:54:45.510Z,0
2017-12-05T01:55:45.499Z,0
2017-12-05T01:56:45.479Z,0
2017-12-05T01:57:45.478Z,0
2017-12-05T01:58:45.475Z,0
2017-12-05T01:59:45.469Z,0
2017-12-05T02:00:45.437Z,0
2017-12-05T02:01:45.423Z,0
2017-12-05T02:02:45.399Z,0
2017-12-05T02:03:45.429Z,0
2017-12-05T02:04:45.382Z,0
2017-12-05T02:05:45.374Z,0
2017-12-05T02:06:45.356Z,0
2017-12-05T02:07:45.352Z,0
2017-12-05T02:08:45.332Z,0
2017-12-05T02:09:45.309Z,0
2017-12-05T02:10:45.379Z,0
2017-12-05T02:11:45.293Z,0
2017-12-05T02:12:45.288Z,0
2017-12-05T02:13:45.018Z,0
2017-12-05T02:14:45.264Z,0
2017-12-05T02:15:45.256Z,0
2017-12-05T02:16:45.231Z,0
2017-12-05T02:17:45.202Z,0
2017-12-05T02:18:45.212Z,0
2017-12-05T02:19:45.189Z,0
2017-12-05T02:20:45.200Z,0
2017-12-05T02:21:44.916Z,0
2017-12-05T02:22:45.140Z,0
2017-12-05T02:23:45.138Z,0
2017-12-05T02:24:45.140Z,0
2017-12-05T02:25:45.107Z,0
2017-12-05T02:26:45.108Z,0
2017-12-05T02:27:44.582Z,0
2017-12-05T02:28:45.091Z,0
2017-12-05T02:29:45.076Z,0
2017-12-05T02:30:45.042Z,0
2017-12-05T02:31:44.789Z,0
2017-12-05T02:32:45.051Z,0
2017-12-05T02:33:45.016Z,0
2017-12-05T02:34:45.016Z,0
2017-12-05T02:35:45.007Z,0
2017-12-05T02:36:44.990Z,0
2017-12-05T02:37:44.716Z,0
2017-12-05T02:38:44.959Z,0
2017-12-05T02:39:44.949Z,0
2017-12-05T02:40:44.679Z,0
2017-12-05T02:41:44.917Z,0
2017-12-05T02:42:44.916Z,0
2017-12-05T02:43:44.892Z,0
2017-12-05T02:44:44.881Z,0
2017-12-05T02:45:44.868Z,0
2017-12-05T02:46:44.866Z,0
2017-12-05T02:47:44.839Z,0
2017-12-05T02:48:44.842Z,0
2017-12-05T02:49:44.828Z,0
2017-12-05T02:50:44.815Z,0
2017-12-05T02:51:44.806Z,0
2017-12-05T02:52:44.788Z,0
2017-12-05T02:53:44.767Z,0
2017-12-05T02:54:44.760Z,0
2017-12-05T02:55:44.740Z,0
2017-12-05T02:56:44.482Z,0
2017-12-05T02:57:44.461Z,0
2017-12-05T02:58:44.705Z,0
2017-12-05T02:59:44.698Z,0
2017-12-05T03:00:44.669Z,0
2017-12-05T03:01:44.679Z,0
2017-12-05T03:02:44.667Z,0
2017-12-05T03:03:44.636Z,0
2017-12-05T03:04:44.711Z,0
2017-12-05T03:05:44.609Z,0
2017-12-05T03:06:44.606Z,0
2017-12-05T03:07:44.588Z,0
2017-12-05T03:08:44.332Z,0
2017-12-05T03:09:44.579Z,0
2017-12-05T03:10:44.552Z,0
2017-12-05T03:11:44.548Z,0
2017-12-05T03:12:44.533Z,0
2017-12-05T03:13:44.519Z,0
2017-12-05T03:14:44.269Z,0
2017-12-05T03:15:44.237Z,0
2017-12-05T03:16:44.483Z,0
2017-12-05T03:17:44.480Z,0
2017-12-05T03:18:44.471Z,0
2017-12-05T03:19:44.446Z,0
2017-12-05T03:20:44.433Z,0
2017-12-05T03:21:44.433Z,0
2017-12-05T03:22:44.396Z,0
2017-12-05T03:23:44.399Z,0
2017-12-05T03:24:44.132Z,0
2017-12-05T03:25:44.384Z,0
2017-12-05T03:26:44.360Z,0
2017-12-05T03:27:44.097Z,0
2017-12-05T03:28:44.340Z,0
2017-12-05T03:29:44.308Z,0
2017-12-05T03:30:44.326Z,0
2017-12-05T03:31:44.037Z,0
2017-12-05T03:32:44.288Z,0
2017-12-05T03:33:44.278Z,0
2017-12-05T03:34:44.259Z,0
2017-12-05T03:35:44.246Z,0
2017-12-05T03:36:44.224Z,0
2017-12-05T03:37:44.376Z,0
2017-12-05T03:38:44.219Z,0
2017-12-05T03:39:44.201Z,0
2017-12-05T03:40:43.669Z,0
2017-12-05T03:41:44.178Z,0
2017-12-05T03:42:44.167Z,0
2017-12-05T03:43:44.161Z,0
2017-12-05T03:44:44.148Z,0
2017-12-05T03:45:44.136Z,0
2017-12-05T03:46:44.123Z,0
2017-12-05T03:47:44.156Z,0
2017-12-05T03:48:44.088Z,0
2017-12-05T03:49:44.084Z,0
2017-12-05T03:50:43.806Z,0
2017-12-05T03:51:43.544Z,0
2017-12-05T03:52:44.052Z,0
2017-12-05T03:53:44.019Z,0
2017-12-05T03:54:44.021Z,0
2017-12-05T03:55:44.010Z,0
2017-12-05T03:56:43.729Z,0
2017-12-05T03:57:43.982Z,0
2017-12-05T03:58:43.986Z,0
2017-12-05T03:59:43.956Z,0
2017-12-05T04:00:43.942Z,0
2017-12-05T04:01:43.937Z,0
2017-12-05T04:02:43.928Z,0
2017-12-05T04:03:43.920Z,0
2017-12-05T04:04:43.908Z,0
2017-12-05T04:05:43.637Z,0
2017-12-05T04:06:43.865Z,0
2017-12-05T04:07:43.606Z,0
2017-12-05T04:08:43.852Z,0
2017-12-05T04:09:43.835Z,0
2017-12-05T04:10:43.810Z,0
2017-12-05T04:11:43.821Z,0
2017-12-05T04:12:43.789Z,0
2017-12-05T04:13:43.780Z,0
2017-12-05T04:14:43.765Z,0
2017-12-05T04:15:43.767Z,0
2017-12-05T04:16:43.746Z,0
2017-12-05T04:17:43.746Z,0
2017-12-05T04:18:43.722Z,0
2017-12-05T04:19:43.723Z,0
2017-12-05T04:20:44.011Z,0
2017-12-05T04:21:43.683Z,0
2017-12-05T04:22:43.430Z,0
2017-12-05T04:23:43.669Z,0
2017-12-05T04:24:43.664Z,0
2017-12-05T04:25:43.644Z,0
2017-12-05T04:26:43.627Z,0
2017-12-05T04:27:43.618Z,0
2017-12-05T04:28:43.103Z,0
2017-12-05T04:29:43.601Z,0
2017-12-05T04:30:43.583Z,0
2017-12-05T04:31:43.578Z,0
2017-12-05T04:32:43.310Z,0
2017-12-05T04:33:43.544Z,0
2017-12-05T04:34:43.541Z,0
2017-12-05T04:35:43.530Z,0
2017-12-05T04:36:43.520Z,0
2017-12-05T04:37:43.247Z,0
2017-12-05T04:38:43.233Z,0
2017-12-05T04:39:43.243Z,0
2017-12-05T04:40:43.473Z,0
2017-12-05T04:41:43.193Z,0
2017-12-05T04:42:43.446Z,0
2017-12-05T04:43:43.161Z,0
2017-12-05T04:44:43.422Z,0
2017-12-05T04:45:43.409Z,0
2017-12-05T04:46:43.141Z,0
2017-12-05T04:47:43.379Z,0
2017-12-05T04:48:43.385Z,0
2017-12-05T04:49:43.349Z,0
2017-12-05T04:50:43.349Z,32
2017-12-05T04:51:43.343Z,40
2017-12-05T04:52:43.328Z,44
2017-12-05T04:53:43.299Z,44
2017-12-05T04:54:43.290Z,44
2017-12-05T04:55:43.293Z,44
2017-12-05T04:56:43.266Z,44
2017-12-05T04:57:43.256Z,44
2017-12-05T04:58:43.011Z,44
2017-12-05T04:59:42.976Z,44
2017-12-05T05:00:42.981Z,44
2017-12-05T05:01:43.223Z,40
2017-12-05T05:02:43.191Z,40
2017-12-05T05:03:43.237Z,40
2017-12-05T05:04:42.915Z,40
2017-12-05T05:05:43.159Z,40
2017-12-05T05:06:43.134Z,40
2017-12-05T05:07:43.144Z,40
2017-12-05T05:08:43.139Z,0
2017-12-05T05:09:43.114Z,0
2017-12-05T05:10:43.108Z,0
2017-12-05T05:11:42.836Z,0
2017-12-05T05:12:43.071Z,0
2017-12-05T05:13:43.070Z,0
2017-12-05T05:14:43.057Z,0
2017-12-05T05:15:43.068Z,0
2017-12-05T05:16:42.770Z,0
2017-12-05T05:17:42.762Z,0
2017-12-05T05:18:43.012Z,0
2017-12-05T05:19:42.987Z,0
2017-12-05T05:20:42.729Z,0
2017-12-05T05:21:42.974Z,0
2017-12-05T05:22:42.715Z,0
2017-12-05T05:23:42.951Z,0
2017-12-05T05:24:42.945Z,0
2017-12-05T05:25:42.669Z,0
2017-12-05T05:26:42.915Z,0
2017-12-05T05:27:42.899Z,0
2017-12-05T05:28:42.619Z,0
2017-12-05T05:29:42.627Z,0
2017-12-05T05:30:42.871Z,0
2017-12-05T05:31:42.601Z,0
2017-12-05T05:32:42.853Z,0
2017-12-05T05:33:42.829Z,0
2017-12-05T05:34:42.827Z,0
2017-12-05T05:35:42.542Z,0
2017-12-05T05:36:42.786Z,0
2017-12-05T05:37:42.784Z,0
2017-12-05T05:38:42.777Z,0
2017-12-05T05:39:42.756Z,0
2017-12-05T05:40:42.749Z,0
2017-12-05T05:41:42.740Z,0
2017-12-05T05:42:42.712Z,0
2017-12-05T05:43:42.707Z,0
2017-12-05T05:44:42.441Z,0
2017-12-05T05:45:42.675Z,0
2017-12-05T05:46:42.670Z,0
2017-12-05T05:47:42.658Z,0
2017-12-05T05:48:42.641Z,0
2017-12-05T05:49:42.370Z,0
2017-12-05T05:50:42.626Z,0
2017-12-05T05:51:42.621Z,0
2017-12-05T05:52:42.600Z,0
2017-12-05T05:53:42.599Z,0
2017-12-05T05:54:42.584Z,0
2017-12-05T05:55:42.559Z,0
2017-12-05T05:56:42.570Z,0
2017-12-05T05:57:42.293Z,0
2017-12-05T05:58:42.528Z,0
2017-12-05T05:59:42.523Z,0
2017-12-05T06:00:42.573Z,0
2017-12-05T06:01:42.499Z,0
2017-12-05T06:02:42.494Z,0
2017-12-05T06:03:42.487Z,0
2017-12-05T06:04:42.467Z,0
2017-12-05T06:05:42.449Z,0
2017-12-05T06:06:42.441Z,0
2017-12-05T06:07:42.435Z,0
2017-12-05T06:08:42.410Z,0
2017-12-05T06:09:42.415Z,0
2017-12-05T06:10:42.411Z,0
2017-12-05T06:11:42.399Z,0
2017-12-05T06:12:42.362Z,0
2017-12-05T06:13:42.365Z,0
2017-12-05T06:14:42.109Z,0
2017-12-05T06:15:42.333Z,0
2017-12-05T06:16:42.333Z,0
2017-12-05T06:17:42.053Z,0
2017-12-05T06:18:42.350Z,0
2017-12-05T06:19:42.392Z,0
2017-12-05T06:20:42.288Z,0
2017-12-05T06:21:42.284Z,0
2017-12-05T06:22:42.249Z,0
2017-12-05T06:23:41.995Z,0
2017-12-05T06:24:42.246Z,4
2017-12-05T06:25:42.222Z,0
2017-12-05T06:26:42.216Z,0
2017-12-05T06:27:42.219Z,4
2017-12-05T06:28:42.193Z,4
2017-12-05T06:29:42.189Z,4
2017-12-05T06:30:42.192Z,4
2017-12-05T06:31:42.170Z,4
2017-12-05T06:32:41.897Z,4
2017-12-05T06:33:41.875Z,4
2017-12-05T06:34:41.883Z,4
2017-12-05T06:35:42.129Z,12
2017-12-05T06:36:42.094Z,8
2017-12-05T06:37:42.089Z,12
2017-12-05T06:38:42.077Z,12
2017-12-05T06:39:42.061Z,16
2017-12-05T06:40:42.064Z,16
2017-12-05T06:41:41.791Z,16
2017-12-05T06:42:42.040Z,16
2017-12-05T06:43:42.019Z,24
2017-12-05T06:44:41.998Z,28
2017-12-05T06:45:42.017Z,32
2017-12-05T06:46:41.738Z,32
2017-12-05T06:47:41.976Z,32
2017-12-05T06:48:41.962Z,40
2017-12-05T06:49:41.969Z,52
2017-12-05T06:50:41.944Z,52
2017-12-05T06:51:41.958Z,60
2017-12-05T06:52:41.929Z,68
2017-12-05T06:53:41.663Z,76
2017-12-05T06:54:41.917Z,88
2017-12-05T06:55:41.880Z,92
2017-12-05T06:56:41.887Z,100
2017-12-05T06:57:41.902Z,120
2017-12-05T06:58:41.592Z,124
2017-12-05T06:59:41.846Z,144
2017-12-05T07:00:41.841Z,156
2017-12-05T07:01:41.615Z,200
2017-12-05T07:02:41.559Z,220
2017-12-05T07:03:41.583Z,228
2017-12-05T07:04:41.799Z,236
2017-12-05T07:05:41.775Z,256
2017-12-05T07:06:41.772Z,292
2017-12-05T07:07:41.769Z,300
2017-12-05T07:08:41.749Z,344
2017-12-05T07:09:41.735Z,292
2017-12-05T07:10:41.733Z,336
2017-12-05T07:11:41.727Z,356
2017-12-05T07:12:41.722Z,408
2017-12-05T07:13:41.694Z,472
2017-12-05T07:14:41.685Z,612
2017-12-05T07:15:41.662Z,612
2017-12-05T07:16:41.662Z,616
2017-12-05T07:17:41.643Z,676
2017-12-05T07:18:41.650Z,676
2017-12-05T07:19:41.632Z,628
2017-12-05T07:20:41.659Z,660
2017-12-05T07:21:41.600Z,844
2017-12-05T07:22:41.596Z,820
2017-12-05T07:23:41.615Z,808
2017-12-05T07:24:41.602Z,760
2017-12-05T07:25:41.604Z,672
2017-12-05T07:26:41.547Z,576
2017-12-05T07:27:41.532Z,596
2017-12-05T07:28:41.278Z,612
2017-12-05T07:29:41.523Z,564
2017-12-05T07:30:41.008Z,556
2017-12-05T07:31:41.287Z,540
2017-12-05T07:32:41.482Z,624
2017-12-05T07:33:41.250Z,628
2017-12-05T07:34:41.460Z,696
2017-12-05T07:35:41.470Z,672
2017-12-05T07:36:41.451Z,608
2017-12-05T07:37:41.433Z,716
2017-12-05T07:38:41.448Z,876
2017-12-05T07:39:41.415Z,892
2017-12-05T07:40:41.434Z,1124
2017-12-05T07:41:41.168Z,1124
2017-12-05T07:42:41.371Z,1076
2017-12-05T07:43:41.367Z,1172
2017-12-05T07:44:41.370Z,1340
2017-12-05T07:45:41.346Z,1220
2017-12-05T07:46:41.347Z,1288
2017-12-05T07:47:41.322Z,1180
2017-12-05T07:48:41.054Z,1256
2017-12-05T07:49:41.330Z,1568
2017-12-05T07:50:41.303Z,1248
2017-12-05T07:51:41.033Z,1208
2017-12-05T07:52:41.278Z,1288
2017-12-05T07:53:41.274Z,1816
2017-12-05T07:54:41.008Z,1468
2017-12-05T07:55:41.256Z,1196
2017-12-05T07:56:41.249Z,884
2017-12-05T07:57:41.254Z,824
2017-12-05T07:58:40.955Z,1044
2017-12-05T07:59:41.200Z,992
2017-12-05T08:00:41.185Z,1212
2017-12-05T08:01:40.925Z,1036
2017-12-05T08:02:41.173Z,1064
2017-12-05T08:03:41.152Z,1324
2017-12-05T08:04:41.158Z,1540
2017-12-05T08:05:41.136Z,1796
2017-12-05T08:06:41.145Z,2160
2017-12-05T08:07:41.099Z,2168
2017-12-05T08:08:41.100Z,2328
2017-12-05T08:09:41.098Z,2124
2017-12-05T08:10:41.097Z,2184
2017-12-05T08:11:41.083Z,1820
2017-12-05T08:12:41.063Z,1424
2017-12-05T08:13:41.067Z,1388
2017-12-05T08:14:41.043Z,1132
2017-12-05T08:15:41.024Z,1180
2017-12-05T08:16:41.429Z,1204
2017-12-05T08:17:41.026Z,1428
2017-12-05T08:18:40.998Z,1676
2017-12-05T08:19:40.999Z,1712
2017-12-05T08:20:40.995Z,1684
2017-12-05T08:21:40.966Z,2016
2017-12-05T08:22:40.963Z,2140
2017-12-05T08:23:40.951Z,1784
2017-12-05T08:24:40.728Z,1944
2017-12-05T08:25:40.986Z,3064
2017-12-05T08:26:40.923Z,2744
2017-12-05T08:27:40.976Z,2788
2017-12-05T08:28:40.897Z,3624
2017-12-05T08:29:40.887Z,3304
2017-12-05T08:30:40.872Z,3156
2017-12-05T08:31:40.856Z,4312
2017-12-05T08:32:40.604Z,3908
2017-12-05T08:33:40.853Z,2708
2017-12-05T08:34:41.314Z,2704
2017-12-05T08:35:40.830Z,2252
2017-12-05T08:36:40.814Z,2176
2017-12-05T08:37:40.831Z,2080
2017-12-05T08:38:40.861Z,2128
2017-12-05T08:39:40.794Z,2092
2017-12-05T08:40:40.528Z,2096
2017-12-05T08:41:40.595Z,2060
2017-12-05T08:42:40.802Z,2172
2017-12-05T08:43:40.683Z,1852
2017-12-05T08:44:40.743Z,2120
2017-12-05T08:45:40.468Z,2528
2017-12-05T08:46:40.701Z,2388
2017-12-05T08:47:40.736Z,2388
2017-12-05T08:48:40.697Z,2248
2017-12-05T08:49:40.690Z,2172
2017-12-05T08:50:40.410Z,2636
2017-12-05T08:51:40.681Z,2532
2017-12-05T08:52:40.910Z,3068
2017-12-05T08:53:40.674Z,3724
2017-12-05T08:54:40.685Z,5208
2017-12-05T08:55:40.652Z,4896
2017-12-05T08:56:40.659Z,4256
2017-12-05T08:57:40.587Z,3960
2017-12-05T08:58:40.618Z,2940
2017-12-05T08:59:40.658Z,3056
2017-12-05T09:00:40.615Z,3132
2017-12-05T09:01:40.123Z,2648
2017-12-05T09:02:40.344Z,2652
2017-12-05T09:03:40.585Z,3476
2017-12-05T09:04:40.569Z,3940
2017-12-05T09:05:40.545Z,3792
2017-12-05T09:06:40.540Z,3752
2017-12-05T09:07:40.504Z,3776
2017-12-05T09:08:40.518Z,2756
2017-12-05T09:09:40.503Z,2604
2017-12-05T09:10:40.485Z,2364
2017-12-05T09:11:40.499Z,2580
2017-12-05T09:12:40.460Z,2552
2017-12-05T09:13:40.197Z,2752
2017-12-05T09:14:40.208Z,3848
2017-12-05T09:15:40.195Z,5344
2017-12-05T09:16:40.436Z,6056
2017-12-05T09:17:40.169Z,4744
2017-12-05T09:18:40.412Z,4632
2017-12-05T09:19:40.373Z,6536
2017-12-05T09:20:40.378Z,6528
2017-12-05T09:21:40.388Z,7632
2017-12-05T09:22:40.355Z,8544
2017-12-05T09:23:40.395Z,8732
2017-12-05T09:24:40.487Z,5660
2017-12-05T09:25:40.338Z,5436
2017-12-05T09:26:40.365Z,5976
2017-12-05T09:27:40.337Z,6052
2017-12-05T09:28:40.291Z,4892
2017-12-05T09:29:40.356Z,3724
2017-12-05T09:30:40.268Z,3240
2017-12-05T09:31:40.287Z,3192
2017-12-05T09:32:40.258Z,3404
2017-12-05T09:33:40.309Z,4048
2017-12-05T09:34:40.805Z,3188
2017-12-05T09:35:40.219Z,3504
2017-12-05T09:36:40.224Z,3564
2017-12-05T09:37:40.214Z,3716
2017-12-05T09:38:40.187Z,3768
2017-12-05T09:39:40.189Z,3532
2017-12-05T09:40:40.211Z,3244
2017-12-05T09:41:40.168Z,3928
2017-12-05T09:42:39.913Z,2924
2017-12-05T09:43:40.146Z,3888
2017-12-05T09:44:40.139Z,4424
2017-12-05T09:45:40.131Z,4376
2017-12-05T09:46:40.135Z,4992
2017-12-05T09:47:40.125Z,5732
2017-12-05T09:48:40.081Z,5252
2017-12-05T09:49:39.873Z,4528
2017-12-05T09:50:40.087Z,4084
2017-12-05T09:51:40.079Z,3732
2017-12-05T09:52:40.060Z,3716
2017-12-05T09:53:39.814Z,3912
2017-12-05T09:54:39.526Z,3228
2017-12-05T09:55:40.088Z,3260
2017-12-05T09:56:40.043Z,3752
2017-12-05T09:57:39.758Z,3048
2017-12-05T09:58:40.006Z,2868
2017-12-05T09:59:40.029Z,2180
2017-12-05T10:00:39.986Z,2352
2017-12-05T10:01:40.032Z,2896
2017-12-05T10:02:39.965Z,2940
2017-12-05T10:03:40.010Z,2780
2017-12-05T10:04:39.946Z,2732
2017-12-05T10:05:40.012Z,2956
2017-12-05T10:06:39.940Z,2644
2017-12-05T10:07:39.953Z,3316
2017-12-05T10:08:39.917Z,3528
2017-12-05T10:09:39.639Z,3304
2017-12-05T10:10:39.897Z,3828
2017-12-05T10:11:39.978Z,5096
2017-12-05T10:12:39.893Z,3500
2017-12-05T10:13:39.595Z,2980
2017-12-05T10:14:39.586Z,3156
2017-12-05T10:15:39.336Z,2384
2017-12-05T10:16:39.870Z,2584
2017-12-05T10:17:39.817Z,3120
2017-12-05T10:18:39.852Z,4080
2017-12-05T10:19:39.922Z,4708
2017-12-05T10:20:39.795Z,4644
2017-12-05T10:21:39.532Z,4044
2017-12-05T10:22:39.782Z,2960
2017-12-05T10:23:39.810Z,2760
2017-12-05T10:24:39.757Z,3004
2017-12-05T10:25:39.732Z,3408
2017-12-05T10:26:39.760Z,3568
2017-12-05T10:27:39.794Z,3324
2017-12-05T10:28:39.730Z,3364
2017-12-05T10:29:39.739Z,2944
2017-12-05T10:30:39.721Z,3740
2017-12-05T10:31:39.695Z,4144
2017-12-05T10:32:39.711Z,3956
2017-12-05T10:33:39.736Z,3988
2017-12-05T10:34:39.420Z,3480
2017-12-05T10:35:39.526Z,3796
2017-12-05T10:36:39.929Z,3748
2017-12-05T10:37:39.643Z,3224
2017-12-05T10:38:39.409Z,3040
2017-12-05T10:39:39.452Z,3508
2017-12-05T10:40:39.602Z,3796
2017-12-05T10:41:39.348Z,4412
2017-12-05T10:42:39.354Z,4712
2017-12-05T10:43:39.596Z,4932
2017-12-05T10:44:39.609Z,5532
2017-12-05T10:45:39.296Z,7268
2017-12-05T10:46:39.293Z,9736
2017-12-05T10:47:39.515Z,9252
2017-12-05T10:48:39.605Z,7628
2017-12-05T10:49:39.520Z,6000
2017-12-05T10:50:39.549Z,5016
2017-12-05T10:51:39.234Z,5092
2017-12-05T10:52:39.534Z,3720
2017-12-05T10:53:39.489Z,3892
2017-12-05T10:54:39.491Z,3940
2017-12-05T10:55:39.467Z,5556
2017-12-05T10:56:39.523Z,5060
2017-12-05T10:57:39.465Z,4288
2017-12-05T10:58:39.435Z,3692
2017-12-05T10:59:39.184Z,3392
2017-12-05T11:00:39.460Z,2564
2017-12-05T11:01:39.687Z,2340
2017-12-05T11:02:39.439Z,2316
2017-12-05T11:03:39.126Z,2532
2017-12-05T11:04:39.381Z,3336
2017-12-05T11:05:39.375Z,3760
2017-12-05T11:06:39.361Z,3276
2017-12-05T11:07:39.357Z,3924
2017-12-05T11:08:39.342Z,4756
2017-12-05T11:09:39.341Z,5440
2017-12-05T11:10:39.347Z,4520
2017-12-05T11:11:39.352Z,5272
2017-12-05T11:12:39.315Z,5736
2017-12-05T11:13:39.052Z,5496
2017-12-05T11:14:39.291Z,4272
2017-12-05T11:15:39.276Z,3192
2017-12-05T11:16:39.283Z,3216
2017-12-05T11:17:39.276Z,3472
2017-12-05T11:18:39.247Z,3848
2017-12-05T11:19:39.260Z,3600
2017-12-05T11:20:39.215Z,3696
2017-12-05T11:21:39.252Z,4864
2017-12-05T11:22:39.218Z,5320
2017-12-05T11:23:38.940Z,5800
2017-12-05T11:24:39.191Z,5632
2017-12-05T11:25:39.203Z,4768
2017-12-05T11:26:38.904Z,4076
2017-12-05T11:27:39.163Z,4612
2017-12-05T11:28:39.140Z,7680
2017-12-05T11:29:39.133Z,8088
2017-12-05T11:30:38.876Z,8820
2017-12-05T11:31:39.117Z,7972
2017-12-05T11:32:39.110Z,8328
2017-12-05T11:33:39.104Z,7232
2017-12-05T11:34:39.106Z,7036
2017-12-05T11:35:39.138Z,6716
2017-12-05T11:36:38.823Z,6180
2017-12-05T11:37:38.795Z,8040
2017-12-05T11:38:39.095Z,8256
2017-12-05T11:39:39.092Z,8324
2017-12-05T11:40:39.092Z,7960
2017-12-05T11:41:39.056Z,7052
2017-12-05T11:42:39.104Z,5888
2017-12-05T11:43:39.102Z,7296
2017-12-05T11:44:39.026Z,8792
2017-12-05T11:45:38.754Z,7536
2017-12-05T11:46:39.025Z,8032
2017-12-05T11:47:38.724Z,6876
2017-12-05T11:48:39.010Z,6292
2017-12-05T11:49:38.719Z,5732
2017-12-05T11:50:38.955Z,5132
2017-12-05T11:51:38.673Z,5128
2017-12-05T11:52:38.676Z,5180
2017-12-05T11:53:38.689Z,6088
2017-12-05T11:54:38.912Z,5328
2017-12-05T11:55:38.882Z,4836
2017-12-05T11:56:38.896Z,4904
2017-12-05T11:57:38.889Z,5236
2017-12-05T11:58:38.875Z,4744
2017-12-05T11:59:38.863Z,4464
2017-12-05T12:00:38.887Z,3756
2017-12-05T12:01:38.856Z,4632
2017-12-05T12:02:38.844Z,4160
2017-12-05T12:03:38.830Z,3212
2017-12-05T12:04:38.586Z,3348
2017-12-05T12:05:38.859Z,3404
2017-12-05T12:06:38.812Z,3708
2017-12-05T12:07:38.853Z,4388
2017-12-05T12:08:38.571Z,4296
2017-12-05T12:09:38.813Z,5084
2017-12-05T12:10:38.755Z,4272
2017-12-05T12:11:38.502Z,3780
2017-12-05T12:12:38.530Z,3920
2017-12-05T12:13:38.788Z,3560
2017-12-05T12:14:38.748Z,4132
2017-12-05T12:15:38.732Z,3812
2017-12-05T12:16:38.750Z,4200
2017-12-05T12:17:38.450Z,3156
2017-12-05T12:18:38.898Z,3328
2017-12-05T12:19:38.692Z,3168
2017-12-05T12:20:38.679Z,2704
2017-12-05T12:21:38.706Z,2564
2017-12-05T12:22:38.668Z,2680
2017-12-05T12:23:38.428Z,2036
2017-12-05T12:24:38.422Z,2536
2017-12-05T12:25:38.675Z,2444
2017-12-05T12:26:38.653Z,2252
2017-12-05T12:27:38.652Z,2180
2017-12-05T12:28:38.609Z,2552
2017-12-05T12:29:38.671Z,2640
2017-12-05T12:30:38.618Z,2576
2017-12-05T12:31:38.575Z,2744
2017-12-05T12:32:38.576Z,3700
2017-12-05T12:33:38.615Z,3344
2017-12-05T12:34:38.674Z,2692
2017-12-05T12:35:38.538Z,2616
2017-12-05T12:36:38.573Z,3292
2017-12-05T12:37:38.042Z,3284
2017-12-05T12:38:38.739Z,2964
2017-12-05T12:39:38.540Z,2584
2017-12-05T12:40:38.513Z,3408
2017-12-05T12:41:38.254Z,3776
2017-12-05T12:42:38.481Z,3508
2017-12-05T12:43:38.725Z,3540
2017-12-05T12:44:38.240Z,3020
2017-12-05T12:45:38.225Z,2668
2017-12-05T12:46:38.217Z,2864
2017-12-05T12:47:38.470Z,2980
2017-12-05T12:48:38.150Z,3024
2017-12-05T12:49:38.499Z,3304
2017-12-05T12:50:38.435Z,3664
2017-12-05T12:51:38.704Z,3400
2017-12-05T12:52:38.435Z,3068
2017-12-05T12:53:38.411Z,3116
2017-12-05T12:54:38.388Z,2128
2017-12-05T12:55:38.399Z,2036
2017-12-05T12:56:38.414Z,1812
2017-12-05T12:57:38.411Z,1556
2017-12-05T12:58:38.365Z,1484
2017-12-05T12:59:38.454Z,1688
2017-12-05T13:00:38.391Z,2128
2017-12-05T13:01:38.310Z,2032
2017-12-05T13:02:38.338Z,2040
2017-12-05T13:03:38.300Z,2444
2017-12-05T13:04:38.288Z,2316
2017-12-05T13:05:38.279Z,2284
2017-12-05T13:06:38.275Z,2300
2017-12-05T13:07:38.346Z,2192
2017-12-05T13:08:38.236Z,2172
2017-12-05T13:09:38.260Z,1684
2017-12-05T13:10:38.256Z,1828
2017-12-05T13:11:37.997Z,1756
2017-12-05T13:12:37.938Z,2480
2017-12-05T13:13:38.261Z,2900
2017-12-05T13:14:38.232Z,3288
2017-12-05T13:15:37.918Z,3864
2017-12-05T13:16:37.899Z,3824
2017-12-05T13:17:38.160Z,4324
2017-12-05T13:18:37.864Z,4944
2017-12-05T13:19:38.143Z,5496
2017-12-05T13:20:37.841Z,4884
2017-12-05T13:21:37.841Z,3944
2017-12-05T13:22:38.114Z,3544
2017-12-05T13:23:38.072Z,3808
2017-12-05T13:24:38.080Z,3900
2017-12-05T13:25:37.577Z,3856
2017-12-05T13:26:38.266Z,3740
2017-12-05T13:27:38.034Z,3412
2017-12-05T13:28:37.758Z,3096
2017-12-05T13:29:38.045Z,3332
2017-12-05T13:30:37.769Z,2972
2017-12-05T13:31:37.990Z,2708
2017-12-05T13:32:37.746Z,2604
2017-12-05T13:33:38.009Z,1952
2017-12-05T13:34:37.968Z,1928
2017-12-05T13:35:38.007Z,1692
2017-12-05T13:36:37.716Z,1660
2017-12-05T13:37:37.949Z,1992
2017-12-05T13:38:37.977Z,1984
2017-12-05T13:39:37.939Z,1344
2017-12-05T13:40:37.923Z,1224
2017-12-05T13:41:37.647Z,1080
2017-12-05T13:42:37.900Z,1280
2017-12-05T13:43:37.942Z,1632
2017-12-05T13:44:37.892Z,1492
2017-12-05T13:45:37.853Z,1872
2017-12-05T13:46:37.888Z,1456
2017-12-05T13:47:37.588Z,1624
2017-12-05T13:48:37.862Z,1528
2017-12-05T13:49:37.836Z,1492
2017-12-05T13:50:37.830Z,1340
2017-12-05T13:51:37.817Z,1372
2017-12-05T13:52:37.820Z,1612
2017-12-05T13:53:37.774Z,1748
2017-12-05T13:54:37.771Z,1856
2017-12-05T13:55:37.243Z,1796
2017-12-05T13:56:37.276Z,1520
2017-12-05T13:57:37.786Z,1340
2017-12-05T13:58:37.758Z,1184
2017-12-05T13:59:37.603Z,1236
2017-12-05T14:00:37.771Z,1388